createdAt,value
2018-09-17T00:00:11.526Z,98.90
2018-09-17T00:02:43.956Z,99.00
2018-09-17T00:05:16.379Z,98.90
2018-09-17T00:07:48.766Z,98.70
2018-09-17T00:10:21.215Z,98.90
2018-09-17T00:12:53.603Z,98.90
2018-09-17T00:15:26.046Z,98.90
2018-09-17T00:17:58.414Z,99.10
2018-09-17T00:20:30.815Z,99.20
2018-09-17T00:23:04.484Z,99.20
2018-09-17T00:25:36.914Z,99.50
2018-09-17T00:28:09.363Z,99.60
2018-09-17T00:30:41.785Z,99.70
2018-09-17T00:33:14.243Z,99.70
2018-09-17T00:35:46.633Z,99.80
2018-09-17T00:38:19.134Z,99.60
2018-09-17T00:40:51.559Z,99.70
2018-09-17T00:43:24.399Z,99.80
2018-09-17T00:45:56.796Z,99.80
2018-09-17T00:48:29.190Z,99.90
2018-09-17T00:51:01.595Z,99.90
2018-09-17T00:53:34.087Z,99.90
2018-09-17T00:56:06.501Z,99.90
2018-09-17T00:58:39.144Z,99.90
2018-09-17T01:01:11.799Z,99.90
2018-09-17T01:03:44.293Z,99.90
2018-09-17T01:06:16.703Z,99.90
2018-09-17T01:08:49.483Z,99.90
2018-09-17T01:11:21.868Z,99.90
2018-09-17T01:13:54.333Z,99.90
2018-09-17T01:16:26.712Z,99.90
2018-09-17T01:18:59.106Z,99.90
2018-09-17T01:21:31.627Z,99.90
2018-09-17T01:24:04.056Z,99.90
2018-09-17T01:26:36.534Z,99.90
2018-09-17T01:29:08.949Z,99.90
2018-09-17T01:31:41.390Z,99.90
2018-09-17T01:34:13.810Z,99.90
2018-09-17T01:36:46.241Z,99.90
2018-09-17T01:39:18.710Z,99.90
2018-09-17T01:41:51.155Z,99.90
2018-09-17T01:44:23.560Z,99.90
2018-09-17T01:46:55.979Z,99.90
2018-09-17T01:49:28.434Z,99.90
2018-09-17T01:52:00.877Z,99.90
2018-09-17T01:54:33.290Z,99.90
2018-09-17T01:57:05.740Z,99.90
2018-09-17T01:59:38.138Z,99.90
2018-09-17T02:02:10.860Z,99.90
2018-09-17T02:04:43.956Z,99.90
2018-09-17T02:07:16.375Z,99.90
2018-09-17T02:09:48.800Z,99.90
2018-09-17T02:12:21.204Z,99.90
2018-09-17T02:14:53.644Z,99.90
2018-09-17T02:17:26.098Z,99.90
2018-09-17T02:19:58.509Z,99.90
2018-09-17T02:22:30.947Z,99.90
2018-09-17T02:25:04.808Z,99.90
2018-09-17T02:27:37.297Z,99.90
2018-09-17T02:30:09.761Z,99.90
2018-09-17T02:32:42.159Z,99.90
2018-09-17T02:35:14.583Z,99.90
2018-09-17T02:37:47.063Z,99.90
2018-09-17T02:40:19.551Z,99.90
2018-09-17T02:42:51.977Z,99.90
2018-09-17T02:45:24.434Z,99.90
2018-09-17T02:47:56.801Z,99.90
2018-09-17T02:50:29.225Z,99.90
2018-09-17T02:53:01.647Z,99.90
2018-09-17T02:55:34.064Z,99.90
2018-09-17T02:58:06.807Z,99.90
2018-09-17T03:00:39.630Z,99.90
2018-09-17T03:03:12.058Z,99.90
2018-09-17T03:05:44.847Z,99.90
2018-09-17T03:08:17.218Z,99.90
2018-09-17T03:10:49.941Z,99.90
2018-09-17T03:13:22.383Z,99.90
2018-09-17T03:15:55.472Z,99.90
2018-09-17T03:21:08.597Z,99.90
2018-09-17T03:23:41.488Z,99.90
2018-09-17T03:26:13.911Z,99.90
2018-09-17T03:28:46.375Z,99.90
2018-09-17T03:31:18.832Z,99.90
2018-09-17T03:33:51.277Z,99.90
2018-09-17T03:36:24.749Z,99.90
2018-09-17T03:38:57.451Z,99.90
2018-09-17T03:41:29.806Z,99.90
2018-09-17T03:44:02.189Z,99.90
2018-09-17T03:46:34.637Z,99.90
2018-09-17T03:49:07.051Z,99.90
2018-09-17T03:51:39.445Z,99.90
2018-09-17T03:54:11.856Z,99.90
2018-09-17T03:56:44.541Z,99.90
2018-09-17T03:59:16.915Z,99.90
2018-09-17T04:01:49.313Z,99.90
2018-09-17T04:04:22.053Z,99.90
2018-09-17T04:06:54.506Z,99.90
2018-09-17T04:09:27.213Z,99.90
2018-09-17T04:11:59.690Z,99.90
2018-09-17T04:14:32.261Z,99.90
2018-09-17T04:17:04.651Z,99.90
2018-09-17T04:19:37.341Z,99.90
2018-09-17T04:22:10.125Z,99.90
2018-09-17T04:24:42.567Z,99.90
2018-09-17T04:27:14.984Z,99.90
2018-09-17T04:29:47.390Z,99.90
2018-09-17T04:32:19.746Z,99.70
2018-09-17T04:34:52.230Z,99.90
2018-09-17T04:37:24.595Z,99.90
2018-09-17T04:39:57.297Z,99.90
2018-09-17T04:42:29.701Z,99.90
2018-09-17T04:45:02.364Z,99.90
2018-09-17T04:47:34.860Z,99.90
2018-09-17T04:50:07.389Z,99.90
2018-09-17T04:52:39.782Z,99.90
2018-09-17T04:55:12.170Z,99.90
2018-09-17T04:57:44.546Z,99.80
2018-09-17T05:00:16.936Z,99.50
2018-09-17T05:02:49.493Z,99.50
2018-09-17T05:05:22.223Z,99.50
2018-09-17T05:07:55.305Z,99.40
2018-09-17T05:10:27.841Z,99.60
2018-09-17T05:13:00.353Z,99.80
2018-09-17T05:15:32.750Z,99.90
2018-09-17T05:18:05.342Z,99.70
2018-09-17T05:20:37.767Z,99.50
2018-09-17T05:23:10.130Z,99.70
2018-09-17T05:25:42.549Z,99.70
2018-09-17T05:28:15.118Z,99.60
2018-09-17T05:30:47.718Z,99.20
2018-09-17T05:33:20.199Z,99.40
2018-09-17T05:35:52.797Z,99.50
2018-09-17T05:38:25.248Z,99.60
2018-09-17T05:40:57.638Z,99.50
2018-09-17T05:43:30.037Z,99.30
2018-09-17T05:46:02.471Z,99.30
2018-09-17T05:48:35.417Z,99.50
2018-09-17T05:51:07.922Z,99.00
2018-09-17T05:53:40.377Z,99.20
2018-09-17T05:56:13.150Z,99.30
2018-09-17T05:58:46.196Z,99.30
2018-09-17T06:01:18.593Z,99.40
2018-09-17T06:03:51.306Z,98.40
2018-09-17T06:06:23.798Z,98.60
2018-09-17T06:08:56.297Z,97.50
2018-09-17T06:11:28.695Z,97.80
2018-09-17T06:14:01.078Z,97.80
2018-09-17T06:16:33.910Z,98.20
2018-09-17T06:19:06.289Z,98.20
2018-09-17T06:21:38.770Z,97.80
2018-09-17T06:24:11.194Z,97.10
2018-09-17T06:26:44.073Z,97.00
2018-09-17T06:29:18.307Z,97.30
2018-09-17T06:31:50.798Z,97.70
2018-09-17T06:34:23.286Z,97.40
2018-09-17T06:39:28.122Z,97.60
2018-09-17T06:42:00.822Z,96.80
2018-09-17T06:44:33.210Z,96.80
2018-09-17T06:47:05.610Z,96.40
2018-09-17T06:49:38.096Z,96.30
2018-09-17T06:52:10.491Z,96.10
2018-09-17T06:54:42.850Z,95.70
2018-09-17T06:57:15.248Z,95.80
2018-09-17T07:02:20.129Z,95.40
2018-09-17T07:04:52.630Z,95.60
2018-09-17T07:09:57.798Z,94.80
2018-09-17T07:12:30.264Z,95.20
2018-09-17T07:15:02.694Z,95.10
2018-09-17T07:17:35.849Z,95.30
2018-09-17T07:20:08.520Z,95.10
2018-09-17T07:22:41.484Z,94.90
2018-09-17T07:25:13.949Z,94.20
2018-09-17T07:27:46.375Z,94.20
2018-09-17T07:30:18.870Z,94.30
2018-09-17T07:32:51.228Z,94.30
2018-09-17T07:35:23.651Z,94.10
2018-09-17T07:37:56.077Z,93.90
2018-09-17T07:40:28.498Z,93.70
2018-09-17T07:43:00.888Z,93.60
2018-09-17T07:45:33.297Z,93.50
2018-09-17T07:48:05.728Z,93.40
2018-09-17T07:50:38.281Z,93.30
2018-09-17T07:53:10.670Z,93.30
2018-09-17T07:55:43.099Z,92.80
2018-09-17T07:58:15.526Z,92.60
2018-09-17T08:00:48.007Z,92.50
2018-09-17T08:03:20.522Z,92.10
2018-09-17T08:05:52.984Z,92.30
2018-09-17T08:08:25.770Z,92.20
2018-09-17T08:10:58.215Z,92.30
2018-09-17T08:13:30.623Z,92.20
2018-09-17T08:16:04.356Z,92.30
2018-09-17T08:18:36.736Z,91.70
2018-09-17T08:21:09.166Z,91.30
2018-09-17T08:23:41.549Z,91.20
2018-09-17T08:26:14.310Z,91.20
2018-09-17T08:28:46.721Z,90.70
2018-09-17T08:31:19.420Z,90.80
2018-09-17T08:33:53.918Z,90.40
2018-09-17T08:36:26.499Z,90.30
2018-09-17T08:38:58.935Z,90.30
2018-09-17T08:41:31.417Z,90.30
2018-09-17T08:44:03.870Z,90.50
2018-09-17T08:46:36.379Z,90.20
2018-09-17T08:51:42.593Z,88.60
2018-09-17T08:59:45.734Z,87.90
2018-09-17T09:02:24.590Z,87.80
2018-09-17T09:05:01.733Z,88.40
2018-09-17T09:07:40.555Z,89.00
2018-09-17T09:10:17.889Z,88.50
2018-09-17T09:15:39.053Z,87.60
2018-09-17T09:20:44.584Z,86.20
2018-09-17T09:23:17.047Z,86.50
2018-09-17T09:25:49.662Z,86.30
2018-09-17T09:28:22.310Z,86.30
2018-09-17T09:30:54.758Z,85.40
2018-09-17T09:33:27.780Z,84.90
2018-09-17T09:36:00.231Z,85.00
2018-09-17T09:38:32.747Z,85.20
2018-09-17T09:41:05.295Z,84.60
2018-09-17T09:46:10.164Z,97.90
2018-09-17T09:48:42.525Z,93.10
2018-09-17T09:51:14.934Z,91.00
2018-09-17T09:53:48.431Z,89.40
2018-09-17T09:58:53.498Z,92.40
2018-09-17T10:01:38.724Z,93.40
2018-09-17T10:09:28.598Z,99.90
2018-09-17T10:12:06.907Z,99.90
2018-09-17T10:17:24.529Z,98.30
2018-09-17T10:19:56.951Z,79.60
2018-09-17T10:22:29.414Z,79.60
2018-09-17T10:25:01.938Z,78.10
2018-09-17T10:27:34.432Z,77.20
2018-09-17T10:30:06.904Z,77.60
2018-09-17T10:32:39.459Z,77.10
2018-09-17T10:35:11.909Z,77.00
2018-09-17T10:37:44.357Z,75.90
2018-09-17T10:40:16.794Z,76.00
2018-09-17T10:42:49.237Z,77.00
2018-09-17T10:45:23.004Z,77.00
2018-09-17T10:47:55.879Z,76.60
2018-09-17T10:50:28.368Z,76.70
2018-09-17T10:53:00.871Z,76.10
2018-09-17T10:55:33.450Z,76.50
2018-09-17T10:58:05.939Z,76.90
2018-09-17T11:00:38.709Z,76.80
2018-09-17T11:05:43.856Z,85.60
2018-09-17T11:13:21.485Z,75.90
2018-09-17T11:18:26.592Z,74.40
2018-09-17T11:23:31.661Z,90.00
2018-09-17T11:26:04.191Z,90.30
2018-09-17T11:28:36.739Z,90.70
2018-09-17T11:31:09.240Z,90.90
2018-09-17T11:33:41.973Z,90.90
2018-09-17T11:38:47.502Z,73.30
2018-09-17T11:41:19.960Z,79.60
2018-09-17T11:43:52.502Z,73.10
2018-09-17T11:46:24.955Z,71.90
2018-09-17T11:48:57.920Z,70.20
2018-09-17T11:51:30.323Z,70.30
2018-09-17T11:54:02.898Z,70.70
2018-09-17T11:56:35.270Z,69.70
2018-09-17T11:59:07.745Z,69.40
2018-09-17T12:01:46.013Z,67.10
2018-09-17T12:04:24.244Z,67.50
2018-09-17T12:07:02.190Z,66.70
2018-09-17T12:09:34.780Z,67.40
2018-09-17T12:12:07.171Z,66.90
2018-09-17T12:14:39.971Z,67.80
2018-09-17T12:17:12.792Z,67.20
2018-09-17T12:19:45.189Z,66.40
2018-09-17T12:22:17.705Z,64.60
2018-09-17T12:24:50.098Z,65.10
2018-09-17T12:27:22.661Z,65.00
2018-09-17T12:29:55.163Z,64.30
2018-09-17T12:32:27.619Z,64.20
2018-09-17T12:35:00.007Z,64.00
2018-09-17T12:37:32.550Z,63.60
2018-09-17T12:40:04.981Z,63.40
2018-09-17T12:42:37.662Z,63.60
2018-09-17T12:45:10.331Z,63.30
2018-09-17T12:47:42.934Z,63.80
2018-09-17T12:50:15.642Z,63.10
2018-09-17T12:52:48.193Z,63.80
2018-09-17T12:55:22.099Z,64.20
2018-09-17T12:57:55.471Z,65.50
2018-09-17T13:00:28.381Z,66.10
2018-09-17T13:03:01.109Z,65.10
2018-09-17T13:05:33.674Z,63.40
2018-09-17T13:08:06.702Z,64.20
2018-09-17T13:10:39.926Z,65.30
2018-09-17T13:13:13.241Z,66.40
2018-09-17T13:15:52.296Z,64.00
2018-09-17T13:18:26.430Z,63.70
2018-09-17T13:20:59.373Z,62.90
2018-09-17T13:23:31.918Z,63.50
2018-09-17T13:26:04.765Z,64.60
2018-09-17T13:28:55.735Z,64.30
2018-09-17T13:31:28.203Z,64.10
2018-09-17T13:34:00.625Z,62.80
2018-09-17T13:36:33.175Z,63.60
2018-09-17T13:39:07.209Z,61.90
2018-09-17T13:41:39.723Z,61.80
2018-09-17T13:44:12.304Z,61.50
2018-09-17T13:46:44.657Z,61.90
2018-09-17T13:49:21.580Z,62.70
2018-09-17T13:51:54.722Z,61.40
2018-09-17T13:54:27.189Z,62.20
2018-09-17T13:59:34.322Z,62.30
2018-09-17T14:02:06.757Z,64.10
2018-09-17T14:04:39.294Z,64.90
2018-09-17T14:07:12.905Z,65.50
2018-09-17T14:09:45.386Z,65.70
2018-09-17T14:12:18.457Z,64.10
2018-09-17T14:14:50.925Z,63.60
2018-09-17T14:17:23.588Z,63.60
2018-09-17T14:19:56.140Z,64.00
2018-09-17T14:22:28.718Z,64.80
2018-09-17T14:25:01.721Z,65.50
2018-09-17T14:27:34.523Z,63.50
2018-09-17T14:30:07.283Z,64.10
2018-09-17T14:32:45.555Z,65.40
2018-09-17T14:35:18.416Z,65.00
2018-09-17T14:37:50.880Z,62.50
2018-09-17T14:40:24.079Z,61.90
2018-09-17T14:42:56.554Z,62.70
2018-09-17T14:45:28.983Z,63.30
2018-09-17T14:48:01.918Z,63.50
2018-09-17T14:50:35.277Z,61.90
2018-09-17T14:53:08.142Z,60.80
2018-09-17T14:55:40.645Z,60.40
2018-09-17T14:58:13.433Z,62.20
2018-09-17T15:00:45.921Z,60.80
2018-09-17T15:03:18.381Z,62.00
2018-09-17T15:05:51.274Z,63.30
2018-09-17T15:08:23.930Z,61.90
2018-09-17T15:10:56.422Z,63.90
2018-09-17T15:13:29.019Z,62.60
2018-09-17T15:16:01.580Z,60.80
2018-09-17T15:18:36.096Z,60.60
2018-09-17T15:21:08.550Z,60.00
2018-09-17T15:23:41.378Z,62.90
2018-09-17T15:26:14.458Z,62.90
2018-09-17T15:28:47.042Z,61.80
2018-09-17T15:31:19.891Z,61.40
2018-09-17T15:33:52.275Z,62.10
2018-09-17T15:36:25.491Z,62.50
2018-09-17T15:38:57.951Z,62.60
2018-09-17T15:41:30.480Z,64.10
2018-09-17T15:44:02.946Z,66.00
2018-09-17T15:46:35.686Z,66.60
2018-09-17T15:49:08.326Z,67.80
2018-09-17T15:51:40.870Z,67.00
2018-09-17T15:54:13.637Z,66.90
2018-09-17T15:56:46.360Z,70.70
2018-09-17T15:59:19.065Z,66.10
2018-09-17T16:01:54.890Z,63.70
2018-09-17T16:04:27.456Z,66.00
2018-09-17T16:06:59.883Z,66.20
2018-09-17T16:09:32.477Z,66.10
2018-09-17T16:12:04.999Z,66.90
2018-09-17T16:14:37.534Z,64.10
2018-09-17T16:17:09.984Z,71.20
2018-09-17T16:19:42.700Z,70.40
2018-09-17T16:24:48.025Z,69.50
2018-09-17T16:27:20.822Z,90.80
2018-09-17T16:29:54.346Z,67.40
2018-09-17T16:32:26.791Z,71.70
2018-09-17T16:37:32.386Z,99.80
2018-09-17T16:40:05.637Z,66.80
2018-09-17T16:42:39.398Z,67.60
2018-09-17T16:45:12.213Z,69.00
2018-09-17T16:47:44.701Z,69.40
2018-09-17T16:50:17.152Z,69.10
2018-09-17T16:52:49.661Z,69.20
2018-09-17T16:55:22.219Z,68.80
2018-09-17T16:57:54.759Z,69.60
2018-09-17T17:00:27.343Z,69.50
2018-09-17T17:05:33.864Z,69.80
2018-09-17T17:23:25.451Z,74.50
2018-09-17T17:28:30.563Z,75.30
2018-09-17T17:31:03.012Z,77.20
2018-09-17T17:33:35.441Z,77.10
2018-09-17T17:43:45.289Z,99.90
2018-09-17T17:46:17.730Z,99.90
2018-09-17T17:48:50.176Z,79.20
2018-09-17T17:51:22.590Z,79.40
2018-09-17T17:53:55.086Z,84.70
2018-09-17T17:56:27.463Z,80.90
2018-09-17T17:58:59.919Z,80.30
2018-09-17T18:04:05.137Z,80.70
2018-09-17T18:06:37.849Z,82.70
2018-09-17T18:09:11.480Z,82.80
2018-09-17T18:11:43.883Z,83.30
2018-09-17T18:14:16.290Z,83.80
2018-09-17T18:16:48.710Z,84.30
2018-09-17T18:19:21.188Z,84.30
2018-09-17T18:21:53.942Z,85.10
2018-09-17T18:24:26.852Z,84.90
2018-09-17T18:26:59.335Z,85.90
2018-09-17T18:29:31.733Z,85.70
2018-09-17T18:34:36.594Z,86.30
2018-09-17T18:37:09.226Z,86.70
2018-09-17T18:39:41.898Z,87.00
2018-09-17T18:42:14.205Z,88.10
2018-09-17T18:47:19.261Z,88.30
2018-09-17T18:49:51.796Z,89.30
2018-09-17T18:52:24.213Z,89.40
2018-09-17T18:54:56.635Z,89.90
2018-09-17T18:57:29.115Z,90.20
2018-09-17T19:00:01.570Z,90.30
2018-09-17T19:02:34.015Z,90.40
2018-09-17T19:05:06.575Z,90.50
2018-09-17T19:07:38.961Z,90.60
2018-09-17T19:10:11.405Z,90.40
2018-09-17T19:12:43.975Z,90.90
2018-09-17T19:15:22.970Z,90.90
2018-09-17T19:17:59.962Z,91.30
2018-09-17T19:20:32.512Z,91.30
2018-09-17T19:23:10.358Z,91.50
2018-09-17T19:25:43.002Z,91.50
2018-09-17T19:28:21.121Z,91.80
2018-09-17T19:30:53.599Z,91.70
2018-09-17T19:33:26.077Z,91.80
2018-09-17T19:35:58.502Z,91.40
2018-09-17T19:38:36.564Z,91.60
2018-09-17T19:41:09.033Z,91.80
2018-09-17T19:43:41.577Z,91.90
2018-09-17T19:46:15.879Z,91.60
2018-09-17T19:48:48.693Z,92.00
2018-09-17T19:51:26.876Z,92.10
2018-09-17T19:53:59.538Z,92.20
2018-09-17T19:56:31.913Z,92.30
2018-09-17T19:59:09.907Z,92.40
2018-09-17T20:01:43.538Z,92.30
2018-09-17T20:04:21.695Z,92.60
2018-09-17T20:06:55.423Z,92.70
2018-09-17T20:09:27.882Z,92.90
2018-09-17T20:12:00.299Z,92.90
2018-09-17T20:14:32.935Z,92.70
2018-09-17T20:17:05.834Z,93.10
2018-09-17T20:19:38.512Z,93.20
2018-09-17T20:22:11.642Z,93.10
2018-09-17T20:24:44.001Z,93.40
2018-09-17T20:27:16.447Z,93.60
2018-09-17T20:29:48.812Z,93.60
2018-09-17T20:32:21.246Z,93.60
2018-09-17T20:34:53.697Z,93.50
2018-09-17T20:37:26.125Z,93.70
2018-09-17T20:39:58.765Z,93.50
2018-09-17T20:42:31.161Z,94.20
2018-09-17T20:45:03.719Z,94.00
2018-09-17T20:47:36.204Z,94.30
2018-09-17T20:50:08.907Z,94.20
2018-09-17T20:52:41.296Z,94.40
2018-09-17T20:55:13.791Z,94.40
2018-09-17T20:57:46.426Z,94.50
2018-09-17T21:00:18.785Z,94.30
2018-09-17T21:02:51.256Z,94.60
2018-09-17T21:05:23.653Z,94.70
2018-09-17T21:07:56.344Z,94.70
2018-09-17T21:10:29.395Z,94.80
2018-09-17T21:13:01.886Z,94.80
2018-09-17T21:15:34.206Z,95.10
2018-09-17T21:18:06.642Z,95.00
2018-09-17T21:20:39.189Z,95.10
2018-09-17T21:23:11.659Z,95.00
2018-09-17T21:25:44.069Z,95.20
2018-09-17T21:28:18.301Z,95.10
2018-09-17T21:30:50.704Z,95.10
2018-09-17T21:33:23.085Z,95.30
2018-09-17T21:35:55.491Z,95.20
2018-09-17T21:38:27.916Z,95.30
2018-09-17T21:41:00.327Z,95.40
2018-09-17T21:43:32.757Z,95.40
2018-09-17T21:46:05.604Z,95.40
2018-09-17T21:48:38.054Z,95.50
2018-09-17T21:51:10.749Z,95.70
2018-09-17T21:53:43.165Z,95.70
2018-09-17T21:56:15.590Z,95.70
2018-09-17T21:58:47.990Z,95.80
2018-09-17T22:01:20.654Z,95.70
2018-09-17T22:03:53.081Z,95.80
2018-09-17T22:06:25.697Z,95.80
2018-09-17T22:08:58.142Z,96.00
2018-09-17T22:11:30.598Z,96.00
2018-09-17T22:14:03.403Z,96.00
2018-09-17T22:16:35.777Z,96.00
2018-09-17T22:19:08.173Z,96.00
2018-09-17T22:21:40.556Z,96.10
2018-09-17T22:24:13.312Z,96.80
2018-09-17T22:26:45.755Z,96.10
2018-09-17T22:29:18.230Z,96.30
2018-09-17T22:31:50.853Z,96.30
2018-09-17T22:34:23.422Z,96.30
2018-09-17T22:36:55.809Z,96.30
2018-09-17T22:39:28.211Z,96.40
2018-09-17T22:42:00.631Z,96.40
2018-09-17T22:44:33.206Z,96.40
2018-09-17T22:47:05.662Z,96.30
2018-09-17T22:49:38.218Z,96.40
2018-09-17T22:52:10.631Z,96.50
2018-09-17T22:57:15.545Z,99.90
2018-09-17T23:02:20.397Z,99.90
2018-09-17T23:04:52.820Z,96.70
2018-09-17T23:07:25.242Z,96.80
2018-09-17T23:09:57.719Z,96.90
2018-09-17T23:12:30.159Z,96.90
2018-09-17T23:15:02.645Z,96.80
2018-09-17T23:17:35.112Z,96.50
2018-09-17T23:20:07.818Z,96.50
2018-09-17T23:22:40.516Z,96.60
2018-09-17T23:27:45.429Z,99.90
2018-09-17T23:30:17.874Z,96.80
2018-09-17T23:32:50.316Z,96.80
2018-09-17T23:35:22.648Z,96.90
2018-09-17T23:37:55.033Z,96.90
2018-09-17T23:40:27.417Z,97.00
2018-09-17T23:43:00.101Z,97.50
2018-09-17T23:45:32.515Z,97.00
2018-09-17T23:48:05.301Z,97.00
2018-09-17T23:50:39.087Z,97.10
2018-09-17T23:53:12.454Z,97.10
2018-09-17T23:55:44.857Z,97.10
2018-09-17T23:58:17.535Z,97.20
